Time;durP1;ratioP1;P1;durP2;ratioP2;P2;SDS_P1;SDS_P2;PMS_P1;PMS_P2;Temp;Humidity;BMP_temperature;BMP_pressure;BME280_temperature;BME280_humidity;BME280_pressure;Samples;Min_cycle;Max_cycle;Signal;HPM_P1;HPM_P2
2022/07/25 00:00:29;;;;;;;9.65;8.75;;;32.90;1.00;;;;;;5093947;28;20016;-50
2022/07/25 00:02:54;;;;;;;12.77;8.68;;;33.00;1.00;;;;;;5099198;28;20398;-50
2022/07/25 00:05:20;;;;;;;8.82;8.13;;;33.00;1.00;;;;;;5111949;28;20024;-48
2022/07/25 00:07:46;;;;;;;8.98;8.15;;;32.90;1.00;;;;;;5103865;28;20036;-47
2022/07/25 00:10:12;;;;;;;8.65;7.95;;;32.90;1.00;;;;;;5094000;28;20020;-49
2022/07/25 00:12:37;;;;;;;10.00;8.63;;;32.90;1.00;;;;;;5111329;28;20406;-49
2022/07/25 00:15:04;;;;;;;9.05;8.25;;;32.90;1.00;;;;;;5112331;28;20016;-49
2022/07/25 00:17:30;;;;;;;9.10;8.30;;;32.80;1.00;;;;;;5102849;28;20035;-47
2022/07/25 00:19:55;;;;;;;8.93;8.20;;;32.80;1.00;;;;;;5097993;28;20015;-44
2022/07/25 00:22:21;;;;;;;9.88;8.98;;;32.80;1.00;;;;;;5111400;28;20122;-44
2022/07/25 00:24:46;;;;;;;9.38;8.38;;;32.70;1.00;;;;;;5112103;28;20480;-45
2022/07/25 00:27:12;;;;;;;9.77;9.05;;;32.60;1.00;;;;;;5105690;28;20109;-47
2022/07/25 00:29:38;;;;;;;10.73;9.73;;;32.50;1.00;;;;;;5111977;28;20022;-46
2022/07/25 00:32:04;;;;;;;9.10;8.25;;;32.40;1.00;;;;;;5115696;28;20032;-47
2022/07/25 00:34:29;;;;;;;9.38;8.30;;;32.40;1.00;;;;;;5116130;28;20377;-48
2022/07/25 00:36:55;;;;;;;9.68;8.48;;;32.40;1.00;;;;;;5104784;28;20028;-45
2022/07/25 00:39:20;;;;;;;11.10;8.80;;;32.50;1.00;;;;;;5116018;28;20035;-46
2022/07/25 00:41:46;;;;;;;11.93;9.35;;;32.50;1.00;;;;;;5114952;28;20055;-52
2022/07/25 00:44:26;;;;;;;9.30;8.50;;;32.50;1.00;;;;;;5089968;28;20027;-49
2022/07/25 00:46:53;;;;;;;10.90;8.77;;;32.50;1.00;;;;;;5112741;28;20477;-48
2022/07/25 00:49:19;;;;;;;10.43;9.43;;;32.50;1.00;;;;;;5116003;28;20027;-50
2022/07/25 00:51:45;;;;;;;11.18;8.77;;;32.70;1.00;;;;;;5115122;28;20035;-48
2022/07/25 00:54:11;;;;;;;11.80;9.45;;;32.80;1.00;;;;;;5103887;28;20023;-49
2022/07/25 00:56:37;;;;;;;10.13;9.15;;;32.80;1.00;;;;;;5115002;28;20032;-48
2022/07/25 00:59:03;;;;;;;10.98;9.10;;;32.90;1.00;;;;;;5102317;28;20031;-48
2022/07/25 01:01:29;;;;;;;9.65;8.27;;;32.90;1.00;;;;;;5103620;28;20500;-49
2022/07/25 01:03:54;;;;;;;9.13;8.40;;;32.80;1.00;;;;;;5113077;28;20157;-50
2022/07/25 01:06:21;;;;;;;9.75;8.82;;;32.70;1.00;;;;;;5115442;28;20086;-47
2022/07/25 01:08:47;;;;;;;9.48;8.55;;;32.70;1.00;;;;;;5100311;28;20024;-45
2022/07/25 01:11:13;;;;;;;10.30;9.25;;;32.60;1.00;;;;;;5114537;28;20043;-47
2022/07/25 01:13:39;;;;;;;8.88;8.02;;;32.60;1.00;;;;;;5112072;28;20065;-47
2022/07/25 01:16:05;;;;;;;9.13;8.23;;;32.60;1.00;;;;;;5104163;28;20024;-45
2022/07/25 01:18:30;;;;;;;10.23;8.68;;;32.60;1.00;;;;;;5114745;28;20031;-45
2022/07/25 01:20:56;;;;;;;11.38;8.07;;;32.60;1.00;;;;;;5115193;28;20023;-47
2022/07/25 01:23:22;;;;;;;9.13;8.23;;;32.60;1.00;;;;;;5110445;28;20025;-48
2022/07/25 01:25:47;;;;;;;9.77;8.38;;;32.70;1.00;;;;;;5115125;28;20019;-47
2022/07/25 01:28:13;;;;;;;9.55;8.65;;;32.70;1.00;;;;;;5114213;28;20392;-48
2022/07/25 01:30:39;;;;;;;9.88;8.52;;;32.60;1.00;;;;;;5114526;28;20069;-48
2022/07/25 01:33:04;;;;;;;10.32;9.32;;;32.70;1.00;;;;;;5095165;28;20484;-46
2022/07/25 01:35:30;;;;;;;9.77;8.75;;;32.70;1.00;;;;;;5114462;28;20112;-45
2022/07/25 01:37:55;;;;;;;10.35;9.55;;;32.70;1.00;;;;;;5092195;28;20028;-46
2022/07/25 01:40:21;;;;;;;9.93;8.98;;;32.70;1.00;;;;;;5095328;28;20056;-47
2022/07/25 01:42:47;;;;;;;10.45;9.43;;;32.80;1.00;;;;;;5089630;28;20031;-48
2022/07/25 01:45:13;;;;;;;10.63;9.55;;;32.90;1.00;;;;;;5114142;28;20035;-49
2022/07/25 01:47:39;;;;;;;9.88;8.60;;;32.80;1.00;;;;;;5110067;28;20044;-45
2022/07/25 01:50:05;;;;;;;10.68;9.65;;;32.80;1.00;;;;;;5113970;28;20028;-47
2022/07/25 01:52:31;;;;;;;10.32;9.25;;;32.90;1.00;;;;;;5113213;28;20541;-50
2022/07/25 01:54:56;;;;;;;10.35;9.45;;;32.80;1.00;;;;;;5114136;28;20035;-50
2022/07/25 01:57:22;;;;;;;10.95;9.93;;;32.80;1.00;;;;;;5111124;28;20038;-50
2022/07/25 01:59:48;;;;;;;10.25;9.35;;;32.70;1.00;;;;;;5111281;28;20102;-48
2022/07/25 02:02:13;;;;;;;10.68;9.40;;;32.70;1.00;;;;;;5111464;28;20399;-45
2022/07/25 02:04:39;;;;;;;9.27;8.63;;;32.60;1.00;;;;;;5108858;28;20028;-48
2022/07/25 02:07:05;;;;;;;12.50;9.98;;;32.70;1.00;;;;;;5094813;28;20063;-49
2022/07/25 02:09:30;;;;;;;10.80;9.82;;;32.70;1.00;;;;;;5113363;28;20065;-45
2022/07/25 02:11:56;;;;;;;10.65;9.65;;;32.60;1.00;;;;;;5112474;28;20028;-47
2022/07/25 02:14:22;;;;;;;10.05;9.20;;;32.60;1.00;;;;;;5099549;28;20030;-45
2022/07/25 02:16:48;;;;;;;10.05;9.10;;;32.60;1.00;;;;;;5113606;28;20742;-49
2022/07/25 02:19:14;;;;;;;10.35;9.40;;;32.60;1.00;;;;;;5104297;28;20016;-47
2022/07/25 02:21:39;;;;;;;10.55;9.65;;;32.40;1.00;;;;;;5093600;28;20549;-44
2022/07/25 02:24:06;;;;;;;10.77;9.10;;;32.20;1.00;;;;;;5109423;28;20027;-45
2022/07/25 02:26:31;;;;;;;10.45;9.52;;;32.30;1.00;;;;;;5114032;28;20041;-45
2022/07/25 02:28:57;;;;;;;11.57;9.90;;;32.20;1.00;;;;;;5094412;28;20028;-46
2022/07/25 02:31:23;;;;;;;10.45;9.45;;;32.00;1.00;;;;;;5113938;28;20024;-45
2022/07/25 02:33:49;;;;;;;10.35;9.45;;;32.00;1.00;;;;;;5113023;28;20030;-45
2022/07/25 02:36:15;;;;;;;10.20;9.25;;;32.00;1.00;;;;;;5113681;28;20020;-46
2022/07/25 02:38:40;;;;;;;10.98;9.95;;;32.00;1.00;;;;;;5111644;28;20035;-45
2022/07/25 02:41:06;;;;;;;10.40;9.40;;;32.00;1.00;;;;;;5113528;28;20044;-47
2022/07/25 02:43:32;;;;;;;11.10;10.15;;;31.90;1.00;;;;;;5112593;28;20034;-45
2022/07/25 02:45:57;;;;;;;10.65;9.55;;;32.00;1.00;;;;;;5113434;28;20067;-45
2022/07/25 02:48:23;;;;;;;10.60;9.60;;;32.00;1.00;;;;;;5112859;28;20035;-46
2022/07/25 02:50:48;;;;;;;9.82;8.93;;;31.70;1.00;;;;;;5111979;28;20015;-48
2022/07/25 02:53:14;;;;;;;9.90;9.00;;;31.80;1.00;;;;;;5112962;28;20520;-45
2022/07/25 02:55:40;;;;;;;10.73;9.77;;;31.80;1.00;;;;;;5094899;28;20499;-48
2022/07/25 02:58:05;;;;;;;10.63;9.63;;;31.90;1.00;;;;;;5112852;28;20038;-48
2022/07/25 03:00:31;;;;;;;10.13;9.13;;;31.90;1.00;;;;;;5112733;28;20382;-47
2022/07/25 03:02:57;;;;;;;9.90;9.10;;;31.90;1.00;;;;;;5109053;28;20020;-48
2022/07/25 03:05:23;;;;;;;10.73;9.77;;;32.00;1.00;;;;;;5104917;28;20050;-45
2022/07/25 03:07:49;;;;;;;10.80;9.50;;;31.90;1.00;;;;;;5109281;28;20035;-48
2022/07/25 03:10:14;;;;;;;10.15;9.10;;;31.80;1.00;;;;;;5102542;28;20495;-46
2022/07/25 03:12:41;;;;;;;13.95;9.88;;;31.90;1.00;;;;;;5111654;28;20055;-48
2022/07/25 03:15:07;;;;;;;10.40;9.50;;;31.80;1.00;;;;;;5100593;28;20031;-46
2022/07/25 03:17:33;;;;;;;10.52;9.63;;;31.90;1.00;;;;;;5112361;28;20039;-47
2022/07/25 03:19:59;;;;;;;9.32;8.40;;;32.00;1.00;;;;;;5098639;28;20472;-47
2022/07/25 03:22:25;;;;;;;9.80;8.93;;;32.00;1.00;;;;;;5113144;28;20404;-48
2022/07/25 03:24:51;;;;;;;9.80;9.10;;;32.00;1.00;;;;;;5112128;28;20031;-46
2022/07/25 03:27:16;;;;;;;10.82;9.82;;;31.90;1.00;;;;;;5112852;28;20122;-44
2022/07/25 03:29:42;;;;;;;9.60;8.70;;;32.00;1.00;;;;;;5091804;28;20395;-44
2022/07/25 03:32:08;;;;;;;12.65;9.68;;;31.90;1.00;;;;;;5112965;28;20458;-46
2022/07/25 03:34:34;;;;;;;10.80;9.80;;;31.90;1.00;;;;;;5111898;28;20385;-47
2022/07/25 03:37:00;;;;;;;11.13;9.05;;;31.90;1.00;;;;;;5111571;28;20050;-51
2022/07/25 03:39:26;;;;;;;10.43;9.70;;;31.90;1.00;;;;;;5111692;28;20465;-47
2022/07/25 03:41:53;;;;;;;10.20;9.27;;;31.80;1.00;;;;;;5112279;28;20062;-49
2022/07/25 03:44:19;;;;;;;11.35;9.80;;;31.80;1.00;;;;;;5107194;28;20129;-48
2022/07/25 03:46:45;;;;;;;9.75;8.68;;;31.70;1.00;;;;;;5112145;28;20427;-46
2022/07/25 03:49:10;;;;;;;12.80;9.05;;;31.60;1.00;;;;;;5111925;28;20032;-50
2022/07/25 03:51:36;;;;;;;10.05;8.80;;;31.70;1.00;;;;;;5112456;28;20028;-49
2022/07/25 03:54:02;;;;;;;10.48;9.13;;;31.80;1.00;;;;;;5105903;28;20445;-49
2022/07/25 03:56:29;;;;;;;9.52;8.60;;;32.00;1.00;;;;;;5112444;28;20028;-47
2022/07/25 03:58:55;;;;;;;9.88;9.00;;;31.80;1.00;;;;;;5089228;28;20024;-46
2022/07/25 04:01:20;;;;;;;11.45;9.73;;;31.70;1.00;;;;;;5093282;28;20022;-47
2022/07/25 04:03:46;;;;;;;9.98;9.13;;;31.40;1.00;;;;;;5093232;28;20031;-50
2022/07/25 04:06:12;;;;;;;9.88;9.00;;;31.50;1.00;;;;;;5112250;28;20023;-46
2022/07/25 04:08:38;;;;;;;9.95;8.80;;;31.60;1.00;;;;;;5111491;28;20031;-47
2022/07/25 04:11:03;;;;;;;10.00;9.00;;;31.60;1.00;;;;;;5112205;28;20011;-46
2022/07/25 04:13:29;;;;;;;9.90;8.95;;;31.70;1.00;;;;;;5106066;28;20051;-46
2022/07/25 04:15:55;;;;;;;10.52;9.57;;;31.60;1.00;;;;;;5108847;28;20410;-46
2022/07/25 04:18:20;;;;;;;9.88;8.85;;;31.70;1.00;;;;;;5111486;28;20035;-46
2022/07/25 04:20:46;;;;;;;10.13;9.20;;;31.70;1.00;;;;;;5112227;28;20031;-45
2022/07/25 04:23:12;;;;;;;9.80;8.73;;;31.60;1.00;;;;;;5109605;28;20389;-45
2022/07/25 04:25:37;;;;;;;10.93;9.82;;;31.60;1.00;;;;;;5112191;28;20483;-46
2022/07/25 04:28:03;;;;;;;12.93;9.38;;;31.70;1.00;;;;;;5110849;28;20399;-46
2022/07/25 04:30:29;;;;;;;10.90;9.75;;;31.70;1.00;;;;;;5112091;28;20114;-47
2022/07/25 04:32:55;;;;;;;10.07;9.07;;;31.70;1.00;;;;;;5109996;28;20505;-46
2022/07/25 04:35:21;;;;;;;10.80;9.70;;;31.70;1.00;;;;;;5073455;28;20020;-45
2022/07/25 04:37:46;;;;;;;10.73;9.70;;;31.70;1.00;;;;;;5102890;28;20392;-45
2022/07/25 04:40:12;;;;;;;11.80;10.60;;;31.70;1.00;;;;;;5110976;28;20027;-45
2022/07/25 04:42:38;;;;;;;11.82;10.40;;;31.70;1.00;;;;;;5102748;28;20047;-45
2022/07/25 04:45:04;;;;;;;11.80;10.10;;;31.70;1.00;;;;;;5107464;28;20132;-47
2022/07/25 04:47:29;;;;;;;11.10;10.02;;;31.70;1.00;;;;;;5111943;28;20038;-47
2022/07/25 04:49:55;;;;;;;11.50;10.50;;;31.70;1.00;;;;;;5097870;28;20028;-50
2022/07/25 04:52:21;;;;;;;11.55;10.55;;;31.60;1.00;;;;;;5111232;28;20522;-51
2022/07/25 04:54:46;;;;;;;11.15;9.93;;;31.70;1.00;;;;;;5108149;28;20027;-51
2022/07/25 04:57:12;;;;;;;11.50;10.35;;;31.70;1.00;;;;;;5111794;28;20031;-48
2022/07/25 04:59:38;;;;;;;10.23;9.30;;;31.80;1.00;;;;;;5110954;28;20096;-46
2022/07/25 05:02:03;;;;;;;11.45;10.32;;;31.80;1.00;;;;;;5107367;28;20031;-50
2022/07/25 05:04:29;;;;;;;10.93;9.88;;;31.80;1.00;;;;;;5106743;28;20031;-50
2022/07/25 05:06:54;;;;;;;13.23;10.43;;;31.70;1.00;;;;;;5093508;28;20039;-49
2022/07/25 05:09:20;;;;;;;10.23;9.25;;;31.70;1.00;;;;;;5110870;28;20019;-48
2022/07/25 05:11:46;;;;;;;11.20;10.13;;;31.70;1.00;;;;;;5112179;28;20038;-47
2022/07/25 05:14:12;;;;;;;12.30;10.30;;;31.60;1.00;;;;;;5112594;28;20388;-46
2022/07/25 05:16:37;;;;;;;11.85;10.02;;;31.50;1.00;;;;;;5115461;28;20032;-45
2022/07/25 05:19:03;;;;;;;12.40;10.05;;;31.30;1.00;;;;;;5114667;28;20031;-48
2022/07/25 05:21:28;;;;;;;12.82;10.30;;;31.40;1.00;;;;;;5115503;28;20016;-49
2022/07/25 05:23:54;;;;;;;10.20;9.18;;;31.20;1.00;;;;;;5114693;28;20051;-49
2022/07/25 05:26:20;;;;;;;14.23;10.73;;;31.40;1.00;;;;;;5115476;28;20028;-48
2022/07/25 05:28:45;;;;;;;11.93;10.73;;;31.20;1.00;;;;;;5114698;28;20027;-47
2022/07/25 05:31:11;;;;;;;11.13;10.00;;;31.20;1.00;;;;;;5108046;28;20028;-46
2022/07/25 05:33:36;;;;;;;10.85;9.80;;;31.20;1.00;;;;;;5096457;28;20473;-46
2022/07/25 05:36:03;;;;;;;10.85;10.05;;;31.20;1.00;;;;;;5094338;28;20024;-45
2022/07/25 05:38:29;;;;;;;11.00;9.90;;;31.30;1.00;;;;;;5096173;28;20027;-47
2022/07/25 05:40:55;;;;;;;12.30;10.93;;;31.30;1.00;;;;;;5099185;28;20410;-46
2022/07/25 05:43:21;;;;;;;13.57;12.13;;;31.30;1.00;;;;;;5101528;28;20023;-45
2022/07/25 05:45:46;;;;;;;11.18;10.18;;;31.30;1.00;;;;;;5114919;28;20032;-45
2022/07/25 05:48:13;;;;;;;11.43;10.43;;;31.30;1.00;;;;;;5114782;28;20137;-46
2022/07/25 05:50:40;;;;;;;11.18;10.05;;;31.30;1.00;;;;;;5108352;28;20020;-47
2022/07/25 05:53:05;;;;;;;13.93;10.10;;;31.30;1.00;;;;;;5114941;28;20145;-47
2022/07/25 05:55:31;;;;;;;10.93;9.82;;;31.40;1.00;;;;;;5114257;28;20102;-45
2022/07/25 05:57:57;;;;;;;14.43;10.40;;;31.40;1.00;;;;;;5092153;28;20490;-47
2022/07/25 06:00:23;;;;;;;11.13;10.05;;;31.50;1.00;;;;;;5104495;28;20023;-47
2022/07/25 06:02:48;;;;;;;11.45;10.15;;;31.50;1.00;;;;;;5111387;28;20024;-46
2022/07/25 06:05:14;;;;;;;10.90;9.55;;;31.50;1.00;;;;;;5075857;28;20495;-46
2022/07/25 06:07:40;;;;;;;11.27;10.27;;;31.70;1.00;;;;;;5108319;28;20031;-48
2022/07/25 06:10:07;;;;;;;12.15;10.45;;;31.80;1.00;;;;;;5089305;28;20059;-46
2022/07/25 06:12:32;;;;;;;14.48;9.25;;;31.70;1.00;;;;;;5107235;28;20019;-46
2022/07/25 06:14:59;;;;;;;12.10;10.73;;;31.70;1.00;;;;;;5113371;28;20454;-48
2022/07/25 06:17:25;;;;;;;20.20;11.05;;;31.80;1.00;;;;;;5096007;28;20016;-49
2022/07/25 06:19:51;;;;;;;11.80;10.20;;;31.70;1.00;;;;;;5113348;28;20393;-46
2022/07/25 06:22:18;;;;;;;14.10;10.35;;;31.80;1.00;;;;;;5114187;28;20020;-50
2022/07/25 06:24:44;;;;;;;14.88;8.93;;;31.60;1.00;;;;;;5111576;28;20035;-48
2022/07/25 06:27:10;;;;;;;13.55;9.98;;;31.50;1.00;;;;;;5114160;28;20027;-44
2022/07/25 06:29:36;;;;;;;11.57;9.38;;;31.60;1.00;;;;;;5105296;28;20028;-48
2022/07/25 06:32:02;;;;;;;9.32;8.43;;;31.30;1.00;;;;;;5108136;28;20080;-62
2022/07/25 06:34:27;;;;;;;9.07;8.18;;;31.20;1.00;;;;;;5113279;28;20106;-64
2022/07/25 06:36:53;;;;;;;8.95;8.15;;;31.20;1.00;;;;;;5113727;28;20449;-62
2022/07/25 06:39:19;;;;;;;9.25;8.43;;;31.20;1.00;;;;;;5112916;28;20027;-60
2022/07/25 06:41:44;;;;;;;10.85;8.68;;;31.20;1.00;;;;;;5113634;28;20046;-63
2022/07/25 06:44:10;;;;;;;8.65;7.65;;;30.90;1.00;;;;;;5112914;28;20024;-62
2022/07/25 06:46:36;;;;;;;8.65;7.78;;;31.20;1.00;;;;;;5113519;28;20382;-62
2022/07/25 06:49:01;;;;;;;8.90;8.07;;;31.00;1.00;;;;;;5092164;28;20038;-59
2022/07/25 06:51:27;;;;;;;9.15;8.07;;;31.10;1.00;;;;;;5113568;28;20016;-62
2022/07/25 06:53:53;;;;;;;9.20;8.32;;;31.10;1.00;;;;;;5106826;28;20477;-58
2022/07/25 06:56:18;;;;;;;8.98;8.07;;;31.30;1.00;;;;;;5095244;28;20039;-63
2022/07/25 06:58:44;;;;;;;11.55;7.93;;;31.30;1.00;;;;;;5105802;28;20487;-66
2022/07/25 07:01:10;;;;;;;9.18;8.00;;;31.50;1.00;;;;;;5108942;28;20016;-59
2022/07/25 07:03:37;;;;;;;13.43;8.52;;;31.60;1.00;;;;;;5112656;28;20057;-55
2022/07/25 07:06:08;;;;;;;9.50;7.95;;;31.60;1.00;;;;;;5113159;28;20384;-50
2022/07/25 07:08:34;;;;;;;10.80;8.85;;;31.60;1.00;;;;;;5112626;28;20032;-57
2022/07/25 07:11:00;;;;;;;9.48;8.32;;;31.50;1.00;;;;;;5113337;28;20023;-53
2022/07/25 07:13:26;;;;;;;15.73;8.43;;;31.60;1.00;;;;;;5112525;28;20711;-55
2022/07/25 07:15:52;;;;;;;9.77;8.30;;;31.60;1.00;;;;;;5113204;28;20072;-56
2022/07/25 07:18:18;;;;;;;12.70;9.07;;;31.60;1.00;;;;;;5110738;28;20027;-54
2022/07/25 07:20:45;;;;;;;13.48;9.48;;;31.60;1.00;;;;;;5105754;28;20436;-54
2022/07/25 07:23:11;;;;;;;9.57;8.80;;;31.70;1.00;;;;;;5112214;28;20095;-54
2022/07/25 07:25:36;;;;;;;12.88;9.45;;;31.60;1.00;;;;;;5113057;28;20561;-52
2022/07/25 07:28:02;;;;;;;10.68;9.57;;;31.70;1.00;;;;;;5094496;28;20115;-54
2022/07/25 07:30:29;;;;;;;10.25;8.75;;;31.70;1.00;;;;;;5110968;28;20051;-55
2022/07/25 07:32:54;;;;;;;9.18;8.32;;;31.70;1.00;;;;;;5113242;28;20031;-55
2022/07/25 07:35:20;;;;;;;12.27;7.85;;;31.70;1.00;;;;;;5101027;28;20024;-51
2022/07/25 07:37:46;;;;;;;10.32;8.05;;;31.70;1.00;;;;;;5112819;28;20055;-62
2022/07/25 07:40:13;;;;;;;8.68;7.78;;;31.70;1.00;;;;;;5111755;28;20480;-59
2022/07/25 07:42:43;;;;;;;9.98;9.10;;;31.80;1.00;;;;;;5112766;28;20470;-58
2022/07/25 07:45:20;;;;;;;9.50;8.27;;;31.80;1.00;;;;;;5083636;28;20035;-46
2022/07/25 07:47:47;;;;;;;9.65;8.75;;;31.90;1.00;;;;;;5088170;28;20197;-45
2022/07/25 07:50:15;;;;;;;10.93;8.70;;;31.90;1.00;;;;;;5111996;28;20103;-46
2022/07/25 07:52:42;;;;;;;10.57;9.52;;;32.00;1.00;;;;;;5112319;28;20124;-51
2022/07/25 07:57:53;;;;;;;9.82;8.90;;;31.90;1.00;;;;;;5098638;28;20558;-46
2022/07/25 08:00:20;;;;;;;10.93;9.35;;;31.80;1.00;;;;;;5108528;28;20023;-48
2022/07/25 08:02:51;;;;;;;9.27;8.38;;;31.70;1.00;;;;;;5112315;28;20027;-43
2022/07/25 08:05:21;;;;;;;9.65;8.73;;;31.70;1.00;;;;;;5111396;28;20032;-50
2022/07/25 08:07:47;;;;;;;10.63;8.02;;;31.60;1.00;;;;;;5112139;28;20070;-47
2022/07/25 08:10:13;;;;;;;11.65;8.50;;;32.00;1.00;;;;;;5106891;28;20024;-52
2022/07/25 08:12:40;;;;;;;11.23;8.55;;;32.10;1.00;;;;;;5112230;28;20032;-46
2022/07/25 08:15:07;;;;;;;9.20;7.63;;;32.10;1.00;;;;;;5111633;28;20490;-47
2022/07/25 08:17:33;;;;;;;8.48;7.68;;;32.20;1.00;;;;;;5112137;28;20089;-47
2022/07/25 08:19:59;;;;;;;11.65;8.20;;;32.30;1.00;;;;;;5110596;28;20035;-46
2022/07/25 08:22:41;;;;;;;12.75;8.55;;;32.40;1.00;;;;;;5112190;28;20024;-46
2022/07/25 08:25:18;;;;;;;8.18;7.50;;;32.70;1.00;;;;;;5092065;28;20052;-48
2022/07/25 08:27:44;;;;;;;8.55;7.68;;;32.80;1.00;;;;;;5092322;28;20461;-51
2022/07/25 08:30:12;;;;;;;9.27;7.60;;;32.70;1.00;;;;;;5111349;28;20020;-47
2022/07/25 08:32:54;;;;;;;8.32;7.35;;;32.80;1.00;;;;;;5112303;28;20036;-48
2022/07/25 08:35:23;;;;;;;11.68;9.77;;;32.90;1.00;;;;;;5106860;28;20170;-49
2022/07/25 08:37:49;;;;;;;9.07;8.18;;;32.90;1.00;;;;;;5111968;28;20412;-45
2022/07/25 08:40:16;;;;;;;8.52;7.50;;;32.40;1.00;;;;;;5111109;28;20103;-50
2022/07/25 08:42:42;;;;;;;8.32;7.53;;;32.50;1.00;;;;;;5110534;28;20027;-49
2022/07/25 08:45:12;;;;;;;9.10;8.00;;;32.60;1.00;;;;;;5093635;28;20330;-46
2022/07/25 08:47:39;;;;;;;9.93;7.22;;;32.70;1.00;;;;;;5110906;28;20038;-50
2022/07/25 08:50:07;;;;;;;9.63;7.50;;;32.50;1.00;;;;;;5090883;28;20542;-52
2022/07/25 08:52:34;;;;;;;22.25;8.35;;;32.70;1.00;;;;;;5103673;28;20043;-53
2022/07/25 08:55:09;;;;;;;8.43;7.55;;;32.60;1.00;;;;;;5095978;28;20031;-48
2022/07/25 08:57:37;;;;;;;12.13;8.90;;;32.70;1.00;;;;;;5109040;28;20481;-49
2022/07/25 09:00:05;;;;;;;11.23;8.50;;;32.80;1.00;;;;;;5115793;28;20095;-51
2022/07/25 09:02:31;;;;;;;9.38;8.55;;;32.90;1.00;;;;;;5106614;28;20015;-51
2022/07/25 09:04:58;;;;;;;11.18;8.38;;;32.90;1.00;;;;;;5097164;28;20050;-50
2022/07/25 09:07:37;;;;;;;8.95;8.05;;;32.90;1.00;;;;;;5114961;28;20055;-49
2022/07/25 09:10:14;;;;;;;10.15;8.30;;;32.90;1.00;;;;;;5097219;28;20469;-45
2022/07/25 09:12:44;;;;;;;9.38;8.60;;;32.80;1.00;;;;;;5111007;28;20361;-47
2022/07/25 09:15:10;;;;;;;11.13;9.30;;;32.70;1.00;;;;;;5112864;28;20418;-49
2022/07/25 09:17:36;;;;;;;11.90;9.50;;;32.70;1.00;;;;;;5114644;28;20024;-47
2022/07/25 09:20:03;;;;;;;11.95;9.40;;;32.70;1.00;;;;;;5097113;28;20364;-48
2022/07/25 09:22:29;;;;;;;9.60;8.55;;;32.70;1.00;;;;;;5114855;28;20131;-49
2022/07/25 09:24:55;;;;;;;8.55;7.68;;;32.80;1.00;;;;;;5113475;28;20114;-50
2022/07/25 09:27:20;;;;;;;9.20;8.25;;;32.90;1.00;;;;;;5113968;28;20155;-48
2022/07/25 09:29:46;;;;;;;9.70;8.73;;;33.00;1.00;;;;;;5106472;28;20020;-51
2022/07/25 09:32:18;;;;;;;8.95;8.18;;;33.10;1.00;;;;;;5114946;28;20031;-51
2022/07/25 09:34:46;;;;;;;9.07;8.30;;;33.20;1.00;;;;;;5115146;28;20023;-49
2022/07/25 09:37:13;;;;;;;9.00;8.20;;;33.30;1.00;;;;;;5114717;28;20071;-49
2022/07/25 09:39:47;;;;;;;9.23;8.25;;;33.30;1.00;;;;;;5103488;28;20023;-52
2022/07/25 09:42:18;;;;;;;11.68;8.75;;;33.40;1.00;;;;;;5114905;28;20044;-48
2022/07/25 09:45:04;;;;;;;9.27;8.48;;;33.40;1.00;;;;;;5114691;28;20028;-50
2022/07/25 09:47:32;;;;;;;8.95;8.35;;;33.40;1.00;;;;;;5113302;28;20076;-47
2022/07/25 09:49:58;;;;;;;12.75;8.80;;;33.50;1.00;;;;;;5104561;28;20432;-47
2022/07/25 09:52:24;;;;;;;10.38;9.38;;;33.50;1.00;;;;;;5106158;28;20023;-51
2022/07/25 09:54:49;;;;;;;11.45;9.38;;;33.30;1.00;;;;;;5102458;28;20031;-51
2022/07/25 09:57:15;;;;;;;13.25;9.38;;;33.50;1.00;;;;;;5114853;28;20042;-52
2022/07/25 09:59:43;;;;;;;10.45;8.48;;;33.50;1.00;;;;;;5113404;28;20495;-47
2022/07/25 10:02:11;;;;;;;8.93;8.15;;;33.50;1.00;;;;;;5096625;28;20027;-48
2022/07/25 10:05:01;;;;;;;14.00;8.65;;;33.90;1.00;;;;;;5113659;28;20128;-47
2022/07/25 10:07:27;;;;;;;9.20;8.40;;;34.20;1.00;;;;;;5095214;28;20035;-52
2022/07/25 10:09:54;;;;;;;9.18;8.38;;;34.60;1.00;;;;;;5095964;28;20484;-52
2022/07/25 10:12:21;;;;;;;9.48;8.65;;;34.60;1.00;;;;;;5114256;28;20570;-51
2022/07/25 10:15:10;;;;;;;9.90;8.93;;;34.90;1.00;;;;;;5113701;28;20024;-48
2022/07/25 10:17:38;;;;;;;11.25;9.32;;;34.30;1.00;;;;;;5113516;28;20023;-48
2022/07/25 10:20:11;;;;;;;11.20;8.52;;;34.40;1.00;;;;;;5095989;28;20019;-48
2022/07/25 10:22:39;;;;;;;11.85;8.13;;;34.30;1.00;;;;;;5095162;28;20028;-46
2022/07/25 10:25:31;;;;;;;9.65;8.93;;;34.50;1.00;;;;;;5114185;28;20054;-49
2022/07/25 10:28:08;;;;;;;10.43;8.43;;;34.60;1.00;;;;;;5106264;28;20130;-45
2022/07/25 10:30:36;;;;;;;9.75;8.98;;;34.40;1.00;;;;;;5100811;28;20034;-48
2022/07/25 10:33:03;;;;;;;9.60;8.55;;;34.50;1.00;;;;;;5113141;28;20048;-49
2022/07/25 10:35:30;;;;;;;9.05;8.25;;;34.50;1.00;;;;;;5113657;28;20077;-47
2022/07/25 10:37:57;;;;;;;9.63;8.82;;;34.50;1.00;;;;;;5112898;28;20107;-53
2022/07/25 10:40:31;;;;;;;12.07;8.88;;;34.90;1.00;;;;;;5113764;28;20159;-48
2022/07/25 10:43:01;;;;;;;8.68;7.88;;;35.40;1.00;;;;;;5110497;28;20024;-46
2022/07/25 10:45:50;;;;;;;9.02;8.23;;;35.60;1.00;;;;;;5110835;28;20023;-50
2022/07/25 10:48:28;;;;;;;8.75;7.80;;;35.60;1.00;;;;;;5110446;28;20040;-49
2022/07/25 10:51:08;;;;;;;9.23;8.35;;;36.10;1.00;;;;;;5113699;28;20027;-49
2022/07/25 10:53:45;;;;;;;9.23;8.43;;;36.00;1.00;;;;;;5112924;28;20478;-49
2022/07/25 10:56:16;;;;;;;10.90;9.13;;;35.60;1.00;;;;;;5113712;28;20027;-49
2022/07/25 10:58:45;;;;;;;8.93;8.23;;;35.50;1.00;;;;;;5094819;28;20026;-49
2022/07/25 11:01:12;;;;;;;9.73;8.90;;;35.60;1.00;;;;;;5109536;28;20030;-47
2022/07/25 11:03:40;;;;;;;9.77;8.82;;;35.60;1.00;;;;;;5107610;28;20103;-48
2022/07/25 11:06:06;;;;;;;9.52;8.55;;;35.50;1.00;;;;;;5113255;28;20051;-46
2022/07/25 11:08:33;;;;;;;9.20;8.48;;;35.40;1.00;;;;;;5112123;28;20081;-46
2022/07/25 11:10:59;;;;;;;10.02;9.15;;;35.70;1.00;;;;;;5112731;28;20020;-47
2022/07/25 11:13:24;;;;;;;9.80;8.88;;;35.70;1.00;;;;;;5109416;28;20024;-50
2022/07/25 11:15:50;;;;;;;9.43;8.50;;;35.80;1.00;;;;;;5113178;28;20024;-51
2022/07/25 11:18:17;;;;;;;10.40;9.48;;;36.00;1.00;;;;;;5109623;28;20067;-50
2022/07/25 11:20:43;;;;;;;10.18;9.25;;;36.10;1.00;;;;;;5112870;28;20515;-48
2022/07/25 11:23:08;;;;;;;10.70;9.77;;;36.10;1.00;;;;;;5112070;28;20051;-51
2022/07/25 11:25:34;;;;;;;9.43;8.48;;;35.90;1.00;;;;;;5111863;28;20406;-52
2022/07/25 11:28:01;;;;;;;9.52;8.73;;;36.10;1.00;;;;;;5112415;28;20031;-49
2022/07/25 11:30:30;;;;;;;10.23;9.30;;;36.30;1.00;;;;;;5113014;28;20023;-47
2022/07/25 11:32:58;;;;;;;9.05;8.35;;;36.50;1.00;;;;;;5112882;28;20024;-46
2022/07/25 11:35:26;;;;;;;9.98;8.98;;;36.30;1.00;;;;;;5107536;28;20031;-49
2022/07/25 11:37:53;;;;;;;10.60;9.45;;;36.70;1.00;;;;;;5094473;28;20023;-50
2022/07/25 11:40:20;;;;;;;9.52;8.73;;;36.70;1.00;;;;;;5111847;28;20039;-49
2022/07/25 11:42:54;;;;;;;11.05;10.15;;;37.20;1.00;;;;;;5110322;28;20063;-48
2022/07/25 11:45:25;;;;;;;10.43;9.52;;;37.40;1.00;;;;;;5105156;28;20023;-50
2022/07/25 11:48:10;;;;;;;10.05;9.15;;;37.90;1.00;;;;;;5110662;28;20077;-52
2022/07/25 11:50:38;;;;;;;11.10;10.05;;;37.80;1.00;;;;;;5111918;28;20466;-47
2022/07/25 11:53:09;;;;;;;10.88;10.07;;;38.40;1.00;;;;;;5093353;28;20503;-47
2022/07/25 11:55:39;;;;;;;11.05;10.10;;;39.20;1.00;;;;;;5098618;28;20027;-52
2022/07/25 11:58:05;;;;;;;10.85;9.90;;;39.90;1.00;;;;;;5111664;28;20028;-53
2022/07/25 12:00:43;;;;;;;10.68;9.98;;;40.00;1.00;;;;;;5112209;28;20073;-51
2022/07/25 12:03:14;;;;;;;12.23;10.95;;;41.00;1.00;;;;;;5108425;28;20062;-50
2022/07/25 12:05:40;;;;;;;11.38;10.48;;;42.00;1.00;;;;;;5111797;28;20015;-47
2022/07/25 12:08:17;;;;;;;11.25;10.43;;;42.30;1.00;;;;;;5093064;28;20382;-49
2022/07/25 12:10:46;;;;;;;11.57;10.45;;;42.70;1.00;;;;;;5110734;28;20028;-48
2022/07/25 12:13:25;;;;;;;12.82;11.57;;;42.20;1.00;;;;;;5096991;28;20111;-49
2022/07/25 12:15:51;;;;;;;12.70;11.48;;;42.70;1.00;;;;;;5093628;28;20589;-47
2022/07/25 12:18:17;;;;;;;12.40;11.18;;;42.40;1.00;;;;;;5110962;28;20110;-46
2022/07/25 12:20:43;;;;;;;12.50;11.52;;;40.60;1.00;;;;;;5107544;28;20019;-47
2022/07/25 12:23:10;;;;;;;15.63;11.02;;;39.30;1.00;;;;;;5112755;28;20522;-50
2022/07/25 12:25:45;;;;;;;12.25;10.60;;;38.80;1.00;;;;;;5097976;28;20031;-53
2022/07/25 12:28:11;;;;;;;14.40;10.95;;;38.40;1.00;;;;;;5115088;28;20477;-47
2022/07/25 12:30:38;;;;;;;11.35;10.30;;;38.20;1.00;;;;;;5116155;28;20026;-51
2022/07/25 12:33:04;;;;;;;12.43;11.43;;;38.10;1.00;;;;;;5114284;28;20134;-51
2022/07/25 12:35:30;;;;;;;12.35;11.10;;;38.00;1.00;;;;;;5115641;28;20519;-48
2022/07/25 12:37:56;;;;;;;11.90;10.85;;;37.70;1.00;;;;;;5115304;28;20028;-47
2022/07/25 12:40:22;;;;;;;11.35;10.35;;;37.70;1.00;;;;;;5109351;28;20043;-54
2022/07/25 12:42:49;;;;;;;11.63;10.50;;;37.70;1.00;;;;;;5115119;28;20384;-48
2022/07/25 12:45:16;;;;;;;12.07;10.93;;;37.60;1.00;;;;;;5115846;28;20024;-47
2022/07/25 12:47:46;;;;;;;12.02;10.98;;;37.70;1.00;;;;;;5111496;28;20508;-47
2022/07/25 12:50:13;;;;;;;12.52;11.43;;;37.60;1.00;;;;;;5115347;28;20061;-52